Time;durP1;ratioP1;P1;durP2;ratioP2;P2;SDS_P1;SDS_P2;PMS_P1;PMS_P2;Temp;Humidity;BMP_temperature;BMP_pressure;BME280_temperature;BME280_humidity;BME280_pressure;Samples;Min_cycle;Max_cycle;Signal;HPM_P1;HPM_P2
2022/01/05 00:01:59;;;;;;;2.78;1.50;;;6.60;99.90;;;;;;5034521;28;20314;-70
2022/01/05 00:04:26;;;;;;;1.90;1.80;;;6.60;99.90;;;;;;5034001;28;20229;-69
2022/01/05 00:06:52;;;;;;;1.70;1.60;;;6.70;99.90;;;;;;5034070;28;20699;-70
2022/01/05 00:09:20;;;;;;;1.42;1.35;;;6.70;99.90;;;;;;5033855;28;20247;-70
2022/01/05 00:11:46;;;;;;;1.33;1.23;;;6.80;99.90;;;;;;5036594;28;20200;-70
2022/01/05 00:14:15;;;;;;;1.50;1.40;;;6.80;99.90;;;;;;5037776;28;20204;-70
2022/01/05 00:16:41;;;;;;;2.03;1.50;;;6.80;99.90;;;;;;5037783;28;20230;-69
2022/01/05 00:19:08;;;;;;;1.30;1.20;;;6.80;99.90;;;;;;5037733;28;20207;-69
2022/01/05 00:21:35;;;;;;;1.85;1.20;;;6.90;99.90;;;;;;5037788;28;20230;-70
2022/01/05 00:24:02;;;;;;;1.15;1.13;;;6.90;99.90;;;;;;5038161;28;20670;-69
2022/01/05 00:26:29;;;;;;;1.08;0.82;;;6.80;99.90;;;;;;5037621;28;20210;-70
2022/01/05 00:28:56;;;;;;;1.20;1.10;;;6.80;99.90;;;;;;5038023;28;20199;-70
2022/01/05 00:31:24;;;;;;;2.40;1.00;;;6.90;99.90;;;;;;5037380;28;20295;-70
2022/01/05 00:33:51;;;;;;;1.00;1.00;;;6.80;99.90;;;;;;5037738;28;20200;-70
2022/01/05 00:36:18;;;;;;;0.95;0.90;;;6.80;99.90;;;;;;5037234;28;20298;-69
2022/01/05 00:38:45;;;;;;;1.27;1.20;;;6.80;99.90;;;;;;5037767;28;20574;-69
2022/01/05 00:41:12;;;;;;;1.20;1.10;;;6.80;99.90;;;;;;5038288;28;20220;-70
2022/01/05 00:43:40;;;;;;;0.90;0.90;;;6.70;99.90;;;;;;5038054;28;20207;-70
2022/01/05 00:46:08;;;;;;;0.90;0.90;;;6.80;99.90;;;;;;5036653;28;20212;-69
2022/01/05 00:48:36;;;;;;;1.20;1.10;;;6.80;99.90;;;;;;5037412;28;20220;-70
2022/01/05 00:51:06;;;;;;;1.10;1.00;;;6.80;99.90;;;;;;5037476;28;20211;-70
2022/01/05 00:53:33;;;;;;;0.98;0.98;;;6.80;99.90;;;;;;5037393;28;20223;-70
2022/01/05 00:56:00;;;;;;;0.80;0.80;;;6.70;99.90;;;;;;5037031;28;20576;-69
2022/01/05 00:58:27;;;;;;;0.60;0.60;;;6.70;99.90;;;;;;5037184;28;20314;-69
2022/01/05 01:00:54;;;;;;;0.80;0.80;;;6.70;99.90;;;;;;5036998;28;20230;-69
2022/01/05 01:03:21;;;;;;;0.80;0.80;;;6.70;99.90;;;;;;5037007;28;20206;-69
2022/01/05 01:05:49;;;;;;;0.90;0.90;;;6.70;99.90;;;;;;5037126;28;20235;-69
2022/01/05 01:08:16;;;;;;;0.57;0.57;;;6.70;99.90;;;;;;5036865;28;20220;-69
2022/01/05 01:10:43;;;;;;;0.50;0.50;;;6.70;99.90;;;;;;5036919;28;20210;-69
2022/01/05 01:13:10;;;;;;;0.60;0.60;;;6.70;99.90;;;;;;5036946;28;20771;-70
2022/01/05 01:15:36;;;;;;;0.60;0.60;;;6.70;99.90;;;;;;5037009;28;20240;-69
2022/01/05 01:18:03;;;;;;;0.65;0.65;;;6.80;99.90;;;;;;5036943;28;20256;-69
2022/01/05 01:20:30;;;;;;;0.60;0.60;;;6.80;99.90;;;;;;5037358;28;20210;-70
2022/01/05 01:22:58;;;;;;;0.60;0.60;;;6.80;99.90;;;;;;5035637;28;20319;-70
2022/01/05 01:25:25;;;;;;;0.50;0.50;;;6.80;99.90;;;;;;5036586;28;20299;-69
2022/01/05 01:27:52;;;;;;;1.40;0.60;;;6.80;99.90;;;;;;5036882;28;20597;-69
2022/01/05 01:30:19;;;;;;;0.60;0.60;;;6.80;99.90;;;;;;5035950;28;20214;-69
2022/01/05 01:32:46;;;;;;;0.60;0.60;;;6.80;99.90;;;;;;5036621;28;20692;-69
2022/01/05 01:35:12;;;;;;;0.50;0.50;;;6.80;99.90;;;;;;5036196;28;20299;-69
2022/01/05 01:37:39;;;;;;;0.40;0.30;;;6.80;99.90;;;;;;5036163;28;20232;-69
2022/01/05 01:40:09;;;;;;;0.50;0.40;;;6.80;99.90;;;;;;5035392;28;20201;-69
2022/01/05 01:42:36;;;;;;;0.43;0.43;;;6.90;99.90;;;;;;5035260;28;20228;-69
2022/01/05 01:45:04;;;;;;;0.40;0.40;;;6.90;99.90;;;;;;5035063;28;20247;-69
2022/01/05 01:47:31;;;;;;;0.50;0.50;;;6.90;99.90;;;;;;5034880;28;20724;-69
2022/01/05 01:49:58;;;;;;;0.50;0.47;;;6.90;99.90;;;;;;5034935;28;20299;-69
2022/01/05 01:52:25;;;;;;;0.45;0.43;;;7.00;99.90;;;;;;5035190;28;20211;-69
2022/01/05 01:54:52;;;;;;;0.47;0.47;;;7.00;99.90;;;;;;5034826;28;20203;-69
2022/01/05 01:57:21;;;;;;;0.40;0.30;;;6.90;99.90;;;;;;5034727;28;20231;-69
2022/01/05 01:59:49;;;;;;;0.40;0.40;;;6.80;99.90;;;;;;5034727;28;20204;-69
2022/01/05 02:02:17;;;;;;;0.80;0.50;;;6.80;99.90;;;;;;5034707;28;20708;-69
2022/01/05 02:04:44;;;;;;;0.40;0.40;;;6.70;99.90;;;;;;5034900;28;20206;-69
2022/01/05 02:07:11;;;;;;;0.38;0.38;;;6.80;99.90;;;;;;5034838;28;20223;-69
2022/01/05 02:09:38;;;;;;;0.65;0.52;;;6.80;99.90;;;;;;5034719;28;20688;-69
2022/01/05 02:12:06;;;;;;;0.38;0.30;;;6.90;99.90;;;;;;5034793;28;20286;-69
2022/01/05 02:14:35;;;;;;;0.50;0.50;;;6.90;99.90;;;;;;5034490;28;20294;-69
2022/01/05 02:17:08;;;;;;;0.50;0.50;;;6.90;99.90;;;;;;5034682;28;20314;-69
2022/01/05 02:19:35;;;;;;;1.45;0.57;;;7.00;99.90;;;;;;5034340;28;20235;-69
2022/01/05 02:22:04;;;;;;;0.45;0.45;;;7.10;99.90;;;;;;5035043;28;20230;-69
2022/01/05 02:24:31;;;;;;;0.40;0.40;;;7.20;99.90;;;;;;5034478;28;20302;-69
2022/01/05 02:26:58;;;;;;;0.40;0.35;;;7.10;99.90;;;;;;5034297;28;20326;-69
2022/01/05 02:29:24;;;;;;;0.70;0.57;;;7.10;99.90;;;;;;5034480;28;20642;-69
2022/01/05 02:31:51;;;;;;;0.70;0.60;;;7.10;99.90;;;;;;5034510;28;20296;-69
2022/01/05 02:34:18;;;;;;;1.25;0.50;;;7.00;99.90;;;;;;5034572;28;20580;-69
2022/01/05 02:36:46;;;;;;;0.57;0.57;;;7.00;99.90;;;;;;5033938;28;20228;-69
2022/01/05 02:39:14;;;;;;;0.70;0.55;;;7.00;99.90;;;;;;5035162;28;20208;-69
2022/01/05 02:41:41;;;;;;;0.65;0.52;;;7.00;99.90;;;;;;5035205;28;20220;-69
2022/01/05 02:44:08;;;;;;;0.50;0.50;;;7.00;99.90;;;;;;5034190;28;20290;-69
2022/01/05 02:46:35;;;;;;;0.55;0.50;;;7.00;99.90;;;;;;5033861;28;20299;-69
2022/01/05 02:49:04;;;;;;;0.85;0.68;;;7.00;99.90;;;;;;5034135;28;20200;-69
2022/01/05 02:51:32;;;;;;;0.50;0.50;;;7.10;99.90;;;;;;5034131;28;20562;-69
2022/01/05 02:53:58;;;;;;;0.68;0.60;;;7.10;99.90;;;;;;5034024;28;20239;-69
2022/01/05 02:56:27;;;;;;;1.00;0.90;;;7.10;99.90;;;;;;5033734;28;20208;-69
2022/01/05 02:58:53;;;;;;;0.70;0.65;;;7.10;99.90;;;;;;5034041;28;20200;-69
2022/01/05 03:01:21;;;;;;;0.60;0.60;;;7.10;99.90;;;;;;5034063;28;20295;-69
2022/01/05 03:03:47;;;;;;;1.58;0.88;;;7.10;99.90;;;;;;5034024;28;20216;-69
2022/01/05 03:06:15;;;;;;;0.90;0.80;;;7.10;99.90;;;;;;5033754;28;20200;-69
2022/01/05 03:08:42;;;;;;;0.70;0.70;;;7.00;99.90;;;;;;5033903;28;20243;-69
2022/01/05 03:11:09;;;;;;;2.05;0.90;;;7.00;99.90;;;;;;5034073;28;20210;-69
2022/01/05 03:13:37;;;;;;;0.70;0.60;;;7.00;99.90;;;;;;5033567;28;20294;-69
2022/01/05 03:16:04;;;;;;;0.93;0.70;;;7.00;99.90;;;;;;5033391;28;20210;-69
2022/01/05 03:18:31;;;;;;;0.55;0.55;;;7.00;99.90;;;;;;5033633;28;20228;-69
2022/01/05 03:20:58;;;;;;;0.60;0.60;;;7.00;99.90;;;;;;5033428;28;20294;-69
2022/01/05 03:23:25;;;;;;;0.60;0.60;;;7.00;99.90;;;;;;5033613;28;20262;-69
2022/01/05 03:25:54;;;;;;;0.50;0.50;;;7.00;99.90;;;;;;5033308;28;20262;-69
2022/01/05 03:28:21;;;;;;;0.70;0.65;;;7.00;99.90;;;;;;5033508;28;20259;-69
2022/01/05 03:30:49;;;;;;;0.50;0.50;;;7.00;99.90;;;;;;5033603;28;20204;-69
2022/01/05 03:33:20;;;;;;;1.33;0.68;;;6.90;99.90;;;;;;5033583;28;20287;-69
2022/01/05 03:35:48;;;;;;;0.63;0.60;;;6.80;99.90;;;;;;5033644;28;20204;-69
2022/01/05 03:38:17;;;;;;;0.60;0.57;;;6.80;99.90;;;;;;5033582;28;20235;-69
2022/01/05 03:40:45;;;;;;;0.40;0.40;;;6.80;99.90;;;;;;5033801;28;20299;-69
2022/01/05 03:43:13;;;;;;;0.40;0.40;;;6.80;99.90;;;;;;5032972;28;20315;-69
2022/01/05 03:45:40;;;;;;;0.60;0.57;;;6.80;99.90;;;;;;5033783;28;20239;-69
2022/01/05 03:48:11;;;;;;;0.50;0.50;;;6.80;99.90;;;;;;5037562;28;20223;-69
2022/01/05 03:50:38;;;;;;;1.45;0.57;;;6.80;99.90;;;;;;5037614;28;20192;-69
2022/01/05 03:53:06;;;;;;;0.50;0.50;;;6.80;99.90;;;;;;5037424;28;20655;-69
2022/01/05 03:55:33;;;;;;;0.98;0.50;;;6.70;99.90;;;;;;5037361;28;20207;-70
2022/01/05 03:58:00;;;;;;;0.40;0.32;;;6.80;99.90;;;;;;5037853;28;20224;-69
2022/01/05 04:00:29;;;;;;;0.43;0.40;;;6.80;99.90;;;;;;5038028;28;20203;-69
2022/01/05 04:02:56;;;;;;;0.43;0.43;;;6.80;99.90;;;;;;5037120;28;20270;-69
2022/01/05 04:05:24;;;;;;;0.40;0.30;;;6.80;99.90;;;;;;5037625;28;20210;-69
2022/01/05 04:07:51;;;;;;;0.80;0.50;;;6.80;99.90;;;;;;5037178;28;20335;-69
2022/01/05 04:10:19;;;;;;;0.40;0.40;;;6.80;99.90;;;;;;5037462;28;20239;-69
2022/01/05 04:12:46;;;;;;;0.57;0.40;;;6.80;99.90;;;;;;5037704;28;20200;-69
2022/01/05 04:15:13;;;;;;;1.85;0.30;;;6.80;99.90;;;;;;5037194;28;20211;-69
2022/01/05 04:17:40;;;;;;;0.40;0.30;;;6.80;99.90;;;;;;5037518;28;20254;-69
2022/01/05 04:20:08;;;;;;;0.57;0.30;;;6.90;99.90;;;;;;5037567;28;20294;-69
2022/01/05 04:22:36;;;;;;;0.40;0.35;;;6.90;99.90;;;;;;5037351;28;20220;-69
2022/01/05 04:25:04;;;;;;;0.40;0.30;;;6.90;99.90;;;;;;5036537;28;20189;-68
2022/01/05 04:27:31;;;;;;;0.40;0.40;;;6.90;99.90;;;;;;5036847;28;20591;-69
2022/01/05 04:29:58;;;;;;;0.50;0.50;;;6.90;99.90;;;;;;5037288;28;20565;-69
2022/01/05 04:32:24;;;;;;;0.40;0.40;;;6.90;99.90;;;;;;5036979;28;20291;-70
2022/01/05 04:34:51;;;;;;;0.73;0.50;;;7.00;99.90;;;;;;5036896;28;20210;-69
2022/01/05 04:37:19;;;;;;;0.50;0.50;;;7.00;99.90;;;;;;5037039;28;20219;-69
2022/01/05 04:39:47;;;;;;;0.50;0.50;;;7.00;99.90;;;;;;5037231;28;20254;-70
2022/01/05 04:42:14;;;;;;;1.10;0.60;;;7.00;99.90;;;;;;5036793;28;20624;-70
2022/01/05 04:44:41;;;;;;;0.50;0.50;;;7.00;99.90;;;;;;5036624;28;20207;-69
2022/01/05 04:47:09;;;;;;;0.68;0.50;;;7.10;99.90;;;;;;5036905;28;20226;-69
2022/01/05 04:49:37;;;;;;;0.60;0.40;;;7.00;99.90;;;;;;5037160;28;20350;-70
2022/01/05 04:52:04;;;;;;;0.80;0.50;;;7.00;99.90;;;;;;5036600;28;20200;-69
2022/01/05 04:54:31;;;;;;;0.50;0.50;;;6.90;99.90;;;;;;5036526;28;20207;-70
2022/01/05 04:56:59;;;;;;;0.60;0.60;;;6.80;99.90;;;;;;5035690;28;20760;-69
2022/01/05 04:59:26;;;;;;;0.57;0.40;;;6.80;99.90;;;;;;5035982;28;20215;-69
2022/01/05 05:01:53;;;;;;;0.65;0.65;;;6.70;99.90;;;;;;5036368;28;20200;-69
2022/01/05 05:04:20;;;;;;;0.57;0.57;;;6.70;99.90;;;;;;5036806;28;20207;-69
2022/01/05 05:06:47;;;;;;;0.45;0.43;;;6.60;99.90;;;;;;5036215;28;20578;-69
2022/01/05 05:09:14;;;;;;;0.50;0.50;;;6.60;99.90;;;;;;5036476;28;20207;-69
2022/01/05 05:11:40;;;;;;;0.70;0.60;;;6.60;99.90;;;;;;5036613;28;20211;-69
2022/01/05 05:14:10;;;;;;;0.57;0.57;;;6.60;99.90;;;;;;5036748;28;20223;-69
2022/01/05 05:16:37;;;;;;;0.50;0.50;;;6.60;99.90;;;;;;5036126;28;20314;-69
2022/01/05 05:19:04;;;;;;;0.65;0.65;;;6.60;99.90;;;;;;5036577;28;20208;-69
2022/01/05 05:21:31;;;;;;;0.63;0.63;;;6.60;99.90;;;;;;5036382;28;20298;-69
2022/01/05 05:23:58;;;;;;;1.05;0.82;;;6.60;99.90;;;;;;5036415;28;20593;-69
2022/01/05 05:26:25;;;;;;;0.95;0.95;;;6.60;99.90;;;;;;5035893;28;20208;-69
2022/01/05 05:28:51;;;;;;;1.17;1.13;;;6.40;99.90;;;;;;5036506;28;20215;-69
2022/01/05 05:31:20;;;;;;;1.15;1.05;;;5.70;99.90;;;;;;5036680;28;20242;-69
2022/01/05 05:33:46;;;;;;;1.65;1.55;;;5.30;99.90;;;;;;5036434;28;20227;-69
2022/01/05 05:36:13;;;;;;;1.35;1.13;;;4.90;99.90;;;;;;5036310;28;20286;-69
2022/01/05 05:38:40;;;;;;;1.58;1.48;;;4.70;99.90;;;;;;5035839;28;20236;-69
2022/01/05 05:41:07;;;;;;;1.40;1.30;;;4.40;99.90;;;;;;5035373;28;20295;-69
2022/01/05 05:43:34;;;;;;;1.90;1.60;;;4.30;99.90;;;;;;5035633;28;20227;-69
2022/01/05 05:46:00;;;;;;;1.60;1.50;;;4.30;99.90;;;;;;5035980;28;20204;-69
2022/01/05 05:48:29;;;;;;;1.52;1.40;;;4.30;99.90;;;;;;5036732;28;20315;-69
2022/01/05 05:50:55;;;;;;;1.70;1.60;;;4.20;99.90;;;;;;5036684;28;20663;-69
2022/01/05 05:53:23;;;;;;;1.25;1.10;;;4.10;99.90;;;;;;5036175;28;20206;-69
2022/01/05 05:55:49;;;;;;;1.17;1.17;;;4.10;99.90;;;;;;5035952;28;20311;-69
2022/01/05 05:58:16;;;;;;;1.27;1.17;;;4.10;99.90;;;;;;5037493;28;20224;-69
2022/01/05 06:00:43;;;;;;;1.50;1.40;;;4.10;99.90;;;;;;5036421;28;20214;-69
2022/01/05 06:03:10;;;;;;;1.10;1.00;;;4.20;99.90;;;;;;5035944;28;20262;-69
2022/01/05 06:05:38;;;;;;;1.58;1.30;;;4.20;99.90;;;;;;5035741;28;20540;-69
2022/01/05 06:08:05;;;;;;;1.80;1.70;;;4.30;99.90;;;;;;5036300;28;20226;-69
2022/01/05 06:10:32;;;;;;;1.10;1.10;;;4.30;99.90;;;;;;5035111;28;20298;-69
2022/01/05 06:12:59;;;;;;;1.60;1.50;;;4.30;99.90;;;;;;5035692;28;20196;-69
2022/01/05 06:15:26;;;;;;;1.52;1.42;;;4.30;99.90;;;;;;5035817;28;20214;-69
2022/01/05 06:17:53;;;;;;;1.30;1.20;;;4.40;99.90;;;;;;5035228;28;20311;-68
2022/01/05 06:20:21;;;;;;;3.70;2.00;;;4.30;99.90;;;;;;5035842;28;20200;-69
2022/01/05 06:22:49;;;;;;;2.78;1.70;;;4.40;99.90;;;;;;5035659;28;20222;-69
2022/01/05 06:25:16;;;;;;;1.73;1.50;;;4.50;99.90;;;;;;5035333;28;20296;-69
2022/01/05 06:27:43;;;;;;;1.70;1.55;;;4.60;99.90;;;;;;5034728;28;20238;-69
2022/01/05 06:30:10;;;;;;;3.38;2.20;;;4.70;99.90;;;;;;5035424;28;20286;-69
2022/01/05 06:32:42;;;;;;;1.40;1.30;;;4.70;99.90;;;;;;5035288;28;20210;-69
2022/01/05 06:35:10;;;;;;;2.45;1.80;;;4.80;99.90;;;;;;5034896;28;20208;-68
2022/01/05 06:37:36;;;;;;;3.17;1.98;;;4.80;99.90;;;;;;5035372;28;20220;-69
2022/01/05 06:40:06;;;;;;;1.95;1.80;;;4.80;99.90;;;;;;5034984;28;20204;-69
2022/01/05 06:42:33;;;;;;;1.75;1.65;;;4.80;99.90;;;;;;5034858;28;20295;-69
2022/01/05 06:45:00;;;;;;;2.92;1.73;;;4.80;99.90;;;;;;5034928;28;20205;-69
2022/01/05 06:47:27;;;;;;;2.63;2.25;;;4.70;99.90;;;;;;5035297;28;20315;-69
2022/01/05 06:49:53;;;;;;;1.75;1.50;;;4.60;99.90;;;;;;5034976;28;20210;-69
2022/01/05 06:52:20;;;;;;;2.55;1.73;;;4.60;99.90;;;;;;5035037;28;20679;-69
2022/01/05 06:54:47;;;;;;;1.77;1.67;;;4.60;99.90;;;;;;5034842;28;20207;-69
2022/01/05 06:57:15;;;;;;;1.73;1.63;;;4.50;99.90;;;;;;5034734;28;20228;-69
2022/01/05 06:59:42;;;;;;;1.90;1.80;;;4.40;99.90;;;;;;5035151;28;20317;-69
2022/01/05 07:02:09;;;;;;;1.90;1.70;;;4.10;99.90;;;;;;5035191;28;20210;-69
2022/01/05 07:04:36;;;;;;;2.85;2.05;;;4.10;99.90;;;;;;5034251;28;20220;-70
2022/01/05 07:07:03;;;;;;;2.35;2.15;;;4.30;99.90;;;;;;5034225;28;20239;-69
2022/01/05 07:09:30;;;;;;;2.13;1.90;;;4.40;99.90;;;;;;5034472;28;20208;-69
2022/01/05 07:11:57;;;;;;;2.25;1.75;;;4.50;99.90;;;;;;5034225;28;20200;-69
2022/01/05 07:14:25;;;;;;;1.88;1.65;;;4.50;99.90;;;;;;5034294;28;20255;-70
2022/01/05 07:16:52;;;;;;;1.63;1.52;;;4.60;99.90;;;;;;5034244;28;20278;-69
2022/01/05 07:19:19;;;;;;;2.25;1.90;;;4.60;99.90;;;;;;5034238;28;20204;-69
2022/01/05 07:21:46;;;;;;;1.67;1.58;;;4.60;99.90;;;;;;5033599;28;20240;-69
2022/01/05 07:24:17;;;;;;;3.05;1.85;;;4.70;99.90;;;;;;5034146;28;20254;-69
2022/01/05 07:26:44;;;;;;;1.88;1.77;;;4.80;99.90;;;;;;5034267;28;20604;-69
2022/01/05 07:29:11;;;;;;;1.70;1.58;;;4.70;99.90;;;;;;5034629;28;20200;-69
2022/01/05 07:31:40;;;;;;;1.70;1.60;;;4.70;99.90;;;;;;5034172;28;20295;-69
2022/01/05 07:34:07;;;;;;;2.20;2.00;;;4.60;99.90;;;;;;5034013;28;20211;-69
2022/01/05 07:36:35;;;;;;;2.15;2.05;;;4.50;99.90;;;;;;5034466;28;20211;-69
2022/01/05 07:39:03;;;;;;;2.28;1.95;;;4.50;99.90;;;;;;5034254;28;20700;-69
2022/01/05 07:41:30;;;;;;;2.92;2.35;;;4.50;99.90;;;;;;5033554;28;20207;-69
2022/01/05 07:43:57;;;;;;;3.00;2.00;;;4.50;99.90;;;;;;5033276;28;20311;-69
2022/01/05 07:46:24;;;;;;;2.58;2.38;;;4.50;99.90;;;;;;5033785;28;20212;-69
2022/01/05 07:48:52;;;;;;;3.60;2.10;;;4.40;99.90;;;;;;5033633;28;20203;-69
2022/01/05 07:51:19;;;;;;;2.60;2.40;;;4.40;99.90;;;;;;5033721;28;20647;-69
2022/01/05 07:53:46;;;;;;;3.35;2.35;;;4.40;99.90;;;;;;5033684;28;20208;-69
2022/01/05 07:56:13;;;;;;;4.45;2.90;;;4.40;99.90;;;;;;5033453;28;20247;-69
2022/01/05 07:58:39;;;;;;;3.63;2.75;;;4.30;99.90;;;;;;5033298;28;20311;-69
2022/01/05 08:01:06;;;;;;;1.90;1.65;;;4.20;99.90;;;;;;5033697;28;20273;-69
2022/01/05 08:03:34;;;;;;;2.60;2.00;;;4.10;99.90;;;;;;5033711;28;20226;-69
2022/01/05 08:06:03;;;;;;;3.08;2.30;;;4.10;99.90;;;;;;5033448;28;20691;-69
2022/01/05 08:08:30;;;;;;;5.65;3.47;;;4.10;99.90;;;;;;5033707;28;20234;-69
2022/01/05 08:10:57;;;;;;;6.85;3.00;;;4.10;99.90;;;;;;5033611;28;20206;-69
2022/01/05 08:13:24;;;;;;;4.18;2.47;;;4.20;99.90;;;;;;5033461;28;20196;-69
2022/01/05 08:15:51;;;;;;;3.72;2.50;;;4.10;99.90;;;;;;5032946;28;20299;-69
2022/01/05 08:18:18;;;;;;;5.97;3.25;;;4.10;99.90;;;;;;5033118;28;20231;-69
2022/01/05 08:20:45;;;;;;;3.88;3.00;;;4.10;99.90;;;;;;5033392;28;20562;-69
2022/01/05 08:23:17;;;;;;;4.25;3.28;;;4.20;99.90;;;;;;5033543;28;20204;-69
2022/01/05 08:25:43;;;;;;;3.33;2.83;;;4.30;99.90;;;;;;5033357;28;20280;-68
2022/01/05 08:28:11;;;;;;;4.85;2.75;;;4.20;99.90;;;;;;5032851;28;20658;-68
2022/01/05 08:30:39;;;;;;;5.68;3.20;;;4.10;99.90;;;;;;5033260;28;20631;-68
2022/01/05 08:33:06;;;;;;;6.72;3.58;;;4.10;99.90;;;;;;5035737;28;20584;-69
2022/01/05 08:35:34;;;;;;;3.50;3.20;;;4.00;99.90;;;;;;5036497;28;20204;-69
2022/01/05 08:38:01;;;;;;;3.38;3.08;;;4.10;99.90;;;;;;5036501;28;20319;-68
2022/01/05 08:40:30;;;;;;;3.40;3.10;;;4.10;99.90;;;;;;5036922;28;20204;-68
2022/01/05 08:42:57;;;;;;;3.80;3.03;;;4.00;99.90;;;;;;5037309;28;20548;-69
2022/01/05 08:45:25;;;;;;;4.95;3.45;;;4.00;99.90;;;;;;5036363;28;20234;-69
2022/01/05 08:47:53;;;;;;;4.53;3.33;;;4.10;99.90;;;;;;5036501;28;20314;-69
2022/01/05 08:50:22;;;;;;;4.43;3.30;;;4.00;99.90;;;;;;5036704;28;20663;-69
2022/01/05 08:52:50;;;;;;;4.25;3.33;;;4.10;99.90;;;;;;5036843;28;20204;-69
2022/01/05 08:55:21;;;;;;;7.95;3.53;;;4.10;99.90;;;;;;5036475;28;20201;-69
2022/01/05 08:57:49;;;;;;;5.25;2.83;;;4.00;99.90;;;;;;5037216;28;20311;-69
2022/01/05 09:00:17;;;;;;;5.32;3.33;;;4.00;99.90;;;;;;5036736;28;20210;-68
2022/01/05 09:02:44;;;;;;;5.82;3.05;;;3.90;99.90;;;;;;5036706;28;20214;-68
2022/01/05 09:05:11;;;;;;;2.25;2.05;;;3.90;99.90;;;;;;5036380;28;20343;-68
2022/01/05 09:07:38;;;;;;;3.25;2.92;;;3.80;99.90;;;;;;5036515;28;20316;-68
2022/01/05 09:10:06;;;;;;;6.55;3.30;;;3.90;99.90;;;;;;5036858;28;20315;-69
2022/01/05 09:12:34;;;;;;;6.70;3.70;;;3.90;99.90;;;;;;5036413;28;20290;-68
2022/01/05 09:15:02;;;;;;;2.92;2.72;;;4.00;99.90;;;;;;5036332;28;20290;-69
2022/01/05 09:17:29;;;;;;;3.70;2.80;;;3.80;99.90;;;;;;5036358;28;20315;-69
2022/01/05 09:19:56;;;;;;;7.50;3.17;;;3.90;99.90;;;;;;5036358;28;20204;-69
2022/01/05 09:22:24;;;;;;;5.47;3.35;;;4.00;99.90;;;;;;5036307;28;20208;-69
2022/01/05 09:24:51;;;;;;;4.35;3.55;;;4.10;99.90;;;;;;5035979;28;20251;-68
2022/01/05 09:27:19;;;;;;;5.00;3.40;;;4.10;99.90;;;;;;5035791;28;20238;-68
2022/01/05 09:29:46;;;;;;;4.30;3.00;;;4.10;99.90;;;;;;5035872;28;20204;-69
2022/01/05 09:32:15;;;;;;;5.72;3.53;;;4.30;99.90;;;;;;5035826;28;20294;-69
2022/01/05 09:34:43;;;;;;;4.38;4.00;;;4.50;99.90;;;;;;5035671;28;20208;-68
2022/01/05 09:37:15;;;;;;;5.03;3.88;;;4.60;99.90;;;;;;5035593;28;20224;-68
2022/01/05 09:42:26;;;;;;;4.35;2.75;;;4.50;99.90;;;;;;5036374;28;20215;-68
2022/01/05 09:44:54;;;;;;;2.53;2.10;;;4.40;99.90;;;;;;5034988;28;20274;-69
2022/01/05 09:47:38;;;;;;;4.15;3.20;;;4.40;99.90;;;;;;5035761;28;20596;-68
2022/01/05 09:50:10;;;;;;;3.90;3.20;;;4.30;99.90;;;;;;5035424;28;20694;-69
2022/01/05 09:52:38;;;;;;;4.53;3.08;;;4.30;99.90;;;;;;5036687;28;20593;-68
2022/01/05 09:55:07;;;;;;;4.63;2.75;;;4.20;99.90;;;;;;5036045;28;20226;-68
2022/01/05 09:57:35;;;;;;;5.20;3.03;;;4.30;99.90;;;;;;5035302;28;20246;-69
2022/01/05 10:00:02;;;;;;;4.13;2.92;;;4.30;99.90;;;;;;5035302;28;20232;-69
2022/01/05 10:02:31;;;;;;;4.57;2.72;;;4.40;99.90;;;;;;5035015;28;20204;-69
2022/01/05 10:05:00;;;;;;;5.57;2.60;;;4.40;99.90;;;;;;5034897;28;20227;-68
2022/01/05 10:07:27;;;;;;;5.97;3.47;;;4.40;99.90;;;;;;5035368;28;20235;-69
2022/01/05 10:09:54;;;;;;;6.07;2.80;;;4.40;99.90;;;;;;5035441;28;20311;-69
2022/01/05 10:12:22;;;;;;;4.43;2.92;;;4.30;99.90;;;;;;5035062;28;20737;-69
2022/01/05 10:14:50;;;;;;;2.75;2.55;;;4.40;99.90;;;;;;5035125;28;20259;-68
2022/01/05 10:17:23;;;;;;;3.78;3.17;;;4.40;99.90;;;;;;5035701;28;20226;-68
2022/01/05 10:19:58;;;;;;;3.88;2.40;;;4.50;99.90;;;;;;5035042;28;20212;-69
2022/01/05 10:22:32;;;;;;;2.63;2.20;;;4.50;99.90;;;;;;5035491;28;20622;-68
2022/01/05 10:24:59;;;;;;;3.88;1.98;;;4.40;99.90;;;;;;5034457;28;20208;-68
2022/01/05 10:27:27;;;;;;;4.10;2.38;;;4.30;99.90;;;;;;5034633;28;20232;-68
2022/01/05 10:30:01;;;;;;;3.85;2.05;;;4.20;99.90;;;;;;5034985;28;20774;-69
2022/01/05 10:32:32;;;;;;;5.40;2.67;;;4.30;99.90;;;;;;5035429;28;20603;-68
2022/01/05 10:35:03;;;;;;;3.50;2.20;;;4.20;99.90;;;;;;5034666;28;20232;-68
2022/01/05 10:37:30;;;;;;;3.45;1.95;;;4.20;99.90;;;;;;5035024;28;20350;-68
2022/01/05 10:40:09;;;;;;;3.33;1.88;;;4.20;99.90;;;;;;5034266;28;20243;-68
2022/01/05 10:42:37;;;;;;;2.38;1.30;;;3.90;99.90;;;;;;5034801;28;20214;-68
2022/01/05 10:45:06;;;;;;;6.25;2.55;;;3.90;99.90;;;;;;5034244;28;20801;-69
2022/01/05 10:47:33;;;;;;;5.07;2.40;;;3.90;99.90;;;;;;5035011;28;20224;-69
2022/01/05 10:50:02;;;;;;;5.80;3.25;;;4.00;99.90;;;;;;5034944;28;20338;-68
2022/01/05 10:52:31;;;;;;;2.90;1.90;;;4.10;99.90;;;;;;5034828;28;20231;-69
2022/01/05 10:55:09;;;;;;;7.75;3.05;;;4.00;99.90;;;;;;5034381;28;20200;-69
2022/01/05 10:57:36;;;;;;;4.28;2.00;;;4.10;99.90;;;;;;5034163;28;20224;-69
2022/01/05 11:00:06;;;;;;;4.53;2.22;;;4.00;99.90;;;;;;5034254;28;20299;-69
2022/01/05 11:02:34;;;;;;;5.05;2.60;;;4.00;99.90;;;;;;5034453;28;20559;-69
2022/01/05 11:05:16;;;;;;;4.00;1.42;;;4.10;99.90;;;;;;5034436;28;20295;-68
2022/01/05 11:07:46;;;;;;;3.28;1.67;;;4.20;99.90;;;;;;5034108;28;20235;-68
2022/01/05 11:10:16;;;;;;;5.00;2.88;;;4.30;99.90;;;;;;5034424;28;20226;-69
2022/01/05 11:12:45;;;;;;;4.00;2.40;;;4.10;99.90;;;;;;5035315;28;20307;-68
2022/01/05 11:15:27;;;;;;;4.03;1.60;;;4.20;99.90;;;;;;5034611;28;20563;-68
2022/01/05 11:18:18;;;;;;;2.65;2.45;;;4.10;99.90;;;;;;5034235;28;20235;-68
2022/01/05 11:20:52;;;;;;;6.97;2.63;;;3.90;99.90;;;;;;5033641;28;20212;-68
2022/01/05 11:23:19;;;;;;;7.90;2.63;;;4.00;99.90;;;;;;5033703;28;20185;-68
2022/01/05 11:25:47;;;;;;;5.97;2.30;;;4.00;99.90;;;;;;5034042;28;20294;-68
2022/01/05 11:28:15;;;;;;;3.10;2.05;;;4.00;99.90;;;;;;5033889;28;20322;-68
2022/01/05 11:30:43;;;;;;;4.60;3.42;;;4.10;99.90;;;;;;5033802;28;20742;-68
2022/01/05 11:33:10;;;;;;;2.53;2.17;;;4.10;99.90;;;;;;5034184;28;20299;-69
2022/01/05 11:35:37;;;;;;;4.82;2.10;;;4.20;99.90;;;;;;5033722;28;20204;-68
2022/01/05 11:38:06;;;;;;;5.60;2.30;;;4.30;99.90;;;;;;5034103;28;20315;-68
2022/01/05 11:40:35;;;;;;;5.05;2.17;;;4.50;99.90;;;;;;5033774;28;20654;-68
2022/01/05 11:43:04;;;;;;;3.45;2.40;;;4.60;99.90;;;;;;5033369;28;20200;-69
2022/01/05 11:45:34;;;;;;;6.32;2.60;;;4.70;99.90;;;;;;5033893;28;20227;-68
2022/01/05 11:48:21;;;;;;;6.45;3.00;;;4.90;99.90;;;;;;5033440;28;20791;-69
2022/01/05 11:50:49;;;;;;;3.67;2.20;;;5.10;99.90;;;;;;5033930;28;20188;-68
2022/01/05 11:53:34;;;;;;;6.15;2.83;;;5.20;99.60;;;;;;5033639;28;20603;-69
2022/01/05 11:56:07;;;;;;;4.88;2.80;;;5.20;99.20;;;;;;5033580;28;20299;-68
2022/01/05 11:58:36;;;;;;;5.22;2.30;;;5.20;99.90;;;;;;5033701;28;20232;-68
2022/01/05 12:01:39;;;;;;;5.55;3.20;;;5.20;99.40;;;;;;5033619;28;20231;-69
2022/01/05 12:04:16;;;;;;;7.35;2.72;;;5.20;99.50;;;;;;5033567;28;20255;-68
2022/01/05 12:07:07;;;;;;;3.67;2.60;;;5.10;99.20;;;;;;5034185;28;20228;-68
2022/01/05 12:09:41;;;;;;;4.95;3.08;;;5.00;99.80;;;;;;5037243;28;20204;-68
2022/01/05 12:12:27;;;;;;;4.50;2.58;;;4.90;99.80;;;;;;5037582;28;20195;-69
2022/01/05 12:14:54;;;;;;;4.60;2.83;;;4.90;99.60;;;;;;5037500;28;20243;-68
2022/01/05 12:17:22;;;;;;;4.68;2.42;;;4.90;99.60;;;;;;5037606;28;20310;-68
2022/01/05 12:20:08;;;;;;;6.00;2.72;;;5.00;99.80;;;;;;5037019;28;20215;-68
2022/01/05 12:22:35;;;;;;;7.10;2.70;;;5.00;99.80;;;;;;5037030;28;20662;-68
2022/01/05 12:25:16;;;;;;;4.28;2.55;;;5.10;99.90;;;;;;5037133;28;20239;-69
2022/01/05 12:28:02;;;;;;;4.90;2.60;;;5.10;99.30;;;;;;5037009;28;20283;-68
2022/01/05 12:30:40;;;;;;;3.60;2.30;;;5.00;98.40;;;;;;5037176;28;20211;-68
2022/01/05 12:33:10;;;;;;;4.75;2.33;;;5.00;98.60;;;;;;5036641;28;20670;-68
2022/01/05 12:35:46;;;;;;;3.63;2.30;;;5.00;99.00;;;;;;5036719;28;20227;-68
2022/01/05 12:38:28;;;;;;;4.18;2.25;;;5.00;97.90;;;;;;5036877;28;20224;-68
2022/01/05 12:40:56;;;;;;;4.47;2.05;;;5.00;98.10;;;;;;5037081;28;20295;-68
2022/01/05 12:43:35;;;;;;;2.70;1.20;;;5.00;98.40;;;;;;5036836;28;20295;-69
2022/01/05 12:46:06;;;;;;;3.47;2.03;;;4.80;98.20;;;;;;5036503;28;20208;-68
2022/01/05 12:49:02;;;;;;;3.80;2.60;;;4.80;98.10;;;;;;5036803;28;20224;-68
2022/01/05 12:51:42;;;;;;;3.28;2.20;;;4.70;98.40;;;;;;5036225;28;20208;-68
2022/01/05 12:54:12;;;;;;;6.03;2.17;;;4.70;98.30;;;;;;5036531;28;20189;-68
2022/01/05 12:56:42;;;;;;;4.97;2.40;;;4.70;98.90;;;;;;5036587;28;20549;-69
2022/01/05 12:59:11;;;;;;;4.97;1.92;;;4.80;99.30;;;;;;5036121;28;20204;-69
2022/01/05 13:01:39;;;;;;;4.60;2.17;;;4.90;98.80;;;;;;5036909;28;20200;-68
2022/01/05 13:04:09;;;;;;;5.03;2.55;;;5.10;97.70;;;;;;5036485;28;20215;-69
2022/01/05 13:06:38;;;;;;;2.75;2.45;;;5.10;97.40;;;;;;5036161;28;20208;-69
2022/01/05 13:09:07;;;;;;;5.10;2.20;;;5.10;97.30;;;;;;5036318;28;20598;-68